sensor_id;sensor_type;location;lat;lon;timestamp;temperature;humidity
17565;DHT22;62994;52.126;5.596;2022-12-18T00:01:15;-0.60;99.90
17565;DHT22;62994;52.126;5.596;2022-12-18T00:03:45;-0.70;99.90
17565;DHT22;62994;52.126;5.596;2022-12-18T00:06:18;-0.70;99.90
17565;DHT22;62994;52.126;5.596;2022-12-18T00:08:49;-0.70;99.90
17565;DHT22;62994;52.126;5.596;2022-12-18T00:11:26;-0.70;99.90
17565;DHT22;62994;52.126;5.596;2022-12-18T00:13:55;-0.70;99.90
17565;DHT22;62994;52.126;5.596;2022-12-18T00:16:24;-0.80;99.90
17565;DHT22;62994;52.126;5.596;2022-12-18T00:19:02;-0.80;99.90
17565;DHT22;62994;52.126;5.596;2022-12-18T00:21:32;-0.90;99.90
17565;DHT22;62994;52.126;5.596;2022-12-18T00:23:59;-0.90;99.90
17565;DHT22;62994;52.126;5.596;2022-12-18T00:26:29;-1.00;99.90
17565;DHT22;62994;52.126;5.596;2022-12-18T00:28:58;-1.00;99.90
17565;DHT22;62994;52.126;5.596;2022-12-18T00:31:30;-1.10;99.90
17565;DHT22;62994;52.126;5.596;2022-12-18T00:33:58;-1.10;99.90
17565;DHT22;62994;52.126;5.596;2022-12-18T00:36:26;-1.10;99.90
17565;DHT22;62994;52.126;5.596;2022-12-18T00:38:57;-1.10;99.90
17565;DHT22;62994;52.126;5.596;2022-12-18T00:41:27;-1.10;99.90
17565;DHT22;62994;52.126;5.596;2022-12-18T00:44:18;-1.20;99.90
17565;DHT22;62994;52.126;5.596;2022-12-18T00:46:46;-1.20;99.90
17565;DHT22;62994;52.126;5.596;2022-12-18T00:49:14;-1.30;99.90
17565;DHT22;62994;52.126;5.596;2022-12-18T00:51:41;-1.30;99.90
17565;DHT22;62994;52.126;5.596;2022-12-18T00:54:10;-1.30;99.90
17565;DHT22;62994;52.126;5.596;2022-12-18T00:56:38;-1.30;99.90
17565;DHT22;62994;52.126;5.596;2022-12-18T00:59:06;-1.30;99.90
17565;DHT22;62994;52.126;5.596;2022-12-18T01:01:33;-1.20;99.90
17565;DHT22;62994;52.126;5.596;2022-12-18T01:04:01;-1.20;99.90
17565;DHT22;62994;52.126;5.596;2022-12-18T01:06:29;-1.20;99.90
17565;DHT22;62994;52.126;5.596;2022-12-18T01:08:56;-1.10;99.90
17565;DHT22;62994;52.126;5.596;2022-12-18T01:11:26;-1.10;99.90
17565;DHT22;62994;52.126;5.596;2022-12-18T01:13:54;-1.10;99.90
17565;DHT22;62994;52.126;5.596;2022-12-18T01:16:23;-1.20;99.90
17565;DHT22;62994;52.126;5.596;2022-12-18T01:18:54;-1.10;99.90
17565;DHT22;62994;52.126;5.596;2022-12-18T01:21:22;-1.20;99.90
17565;DHT22;62994;52.126;5.596;2022-12-18T01:23:51;-1.20;99.90
17565;DHT22;62994;52.126;5.596;2022-12-18T01:26:19;-1.30;99.90
17565;DHT22;62994;52.126;5.596;2022-12-18T01:28:48;-1.30;99.90
17565;DHT22;62994;52.126;5.596;2022-12-18T01:31:17;-1.30;99.90
17565;DHT22;62994;52.126;5.596;2022-12-18T01:33:46;-1.30;99.90
17565;DHT22;62994;52.126;5.596;2022-12-18T01:36:17;-1.30;99.90
17565;DHT22;62994;52.126;5.596;2022-12-18T01:38:51;-1.20;99.90
17565;DHT22;62994;52.126;5.596;2022-12-18T01:41:23;-1.10;99.90
17565;DHT22;62994;52.126;5.596;2022-12-18T01:43:55;-1.10;99.90
17565;DHT22;62994;52.126;5.596;2022-12-18T01:46:26;-1.10;99.90
17565;DHT22;62994;52.126;5.596;2022-12-18T01:48:56;-1.10;99.90
17565;DHT22;62994;52.126;5.596;2022-12-18T01:51:28;-1.00;99.90
17565;DHT22;62994;52.126;5.596;2022-12-18T01:53:55;-1.10;99.90
17565;DHT22;62994;52.126;5.596;2022-12-18T01:56:25;-1.00;99.90
17565;DHT22;62994;52.126;5.596;2022-12-18T01:58:58;-1.00;99.90
17565;DHT22;62994;52.126;5.596;2022-12-18T02:01:27;-1.00;99.90
17565;DHT22;62994;52.126;5.596;2022-12-18T02:04:21;-1.00;99.90
17565;DHT22;62994;52.126;5.596;2022-12-18T02:06:45;-1.00;99.90
17565;DHT22;62994;52.126;5.596;2022-12-18T02:09:17;-1.00;99.90
17565;DHT22;62994;52.126;5.596;2022-12-18T02:11:51;-1.00;99.90
17565;DHT22;62994;52.126;5.596;2022-12-18T02:14:39;-1.00;99.90
17565;DHT22;62994;52.126;5.596;2022-12-18T02:17:11;-1.00;99.90
17565;DHT22;62994;52.126;5.596;2022-12-18T02:19:53;-1.00;99.90
17565;DHT22;62994;52.126;5.596;2022-12-18T02:22:37;-1.00;99.90
17565;DHT22;62994;52.126;5.596;2022-12-18T02:25:20;-1.00;99.90
17565;DHT22;62994;52.126;5.596;2022-12-18T02:27:54;-1.00;99.90
17565;DHT22;62994;52.126;5.596;2022-12-18T02:30:31;-1.00;99.90
17565;DHT22;62994;52.126;5.596;2022-12-18T02:33:01;-1.10;99.90
17565;DHT22;62994;52.126;5.596;2022-12-18T02:35:31;-1.10;99.90
17565;DHT22;62994;52.126;5.596;2022-12-18T02:38:02;-1.20;99.90
17565;DHT22;62994;52.126;5.596;2022-12-18T02:40:30;-1.20;99.90
17565;DHT22;62994;52.126;5.596;2022-12-18T02:43:07;-1.20;99.90
17565;DHT22;62994;52.126;5.596;2022-12-18T02:45:34;-1.20;99.90
17565;DHT22;62994;52.126;5.596;2022-12-18T02:48:02;-1.30;99.90
17565;DHT22;62994;52.126;5.596;2022-12-18T02:50:34;-1.40;99.90
17565;DHT22;62994;52.126;5.596;2022-12-18T02:53:09;-1.40;99.90
17565;DHT22;62994;52.126;5.596;2022-12-18T02:55:49;-1.40;99.90
17565;DHT22;62994;52.126;5.596;2022-12-18T02:58:27;-1.50;99.90
17565;DHT22;62994;52.126;5.596;2022-12-18T03:01:11;-1.50;99.90
17565;DHT22;62994;52.126;5.596;2022-12-18T03:03:50;-1.60;99.90
17565;DHT22;62994;52.126;5.596;2022-12-18T03:06:24;-1.60;99.90
17565;DHT22;62994;52.126;5.596;2022-12-18T03:09:07;-1.60;99.90
17565;DHT22;62994;52.126;5.596;2022-12-18T03:11:39;-1.60;99.90
17565;DHT22;62994;52.126;5.596;2022-12-18T03:14:28;-1.70;99.90
17565;DHT22;62994;52.126;5.596;2022-12-18T03:17:00;-1.70;99.90
17565;DHT22;62994;52.126;5.596;2022-12-18T03:19:31;-1.70;99.90
17565;DHT22;62994;52.126;5.596;2022-12-18T03:22:02;-1.80;99.90
17565;DHT22;62994;52.126;5.596;2022-12-18T03:24:31;-1.80;99.90
17565;DHT22;62994;52.126;5.596;2022-12-18T03:27:02;-1.80;99.90
17565;DHT22;62994;52.126;5.596;2022-12-18T03:29:35;-1.80;99.90
17565;DHT22;62994;52.126;5.596;2022-12-18T03:32:09;-1.80;99.90
17565;DHT22;62994;52.126;5.596;2022-12-18T03:34:39;-1.80;99.90
17565;DHT22;62994;52.126;5.596;2022-12-18T03:37:07;-1.80;99.90
17565;DHT22;62994;52.126;5.596;2022-12-18T03:39:35;-1.80;99.90
17565;DHT22;62994;52.126;5.596;2022-12-18T03:42:06;-1.80;99.90
17565;DHT22;62994;52.126;5.596;2022-12-18T03:44:41;-1.80;99.90
17565;DHT22;62994;52.126;5.596;2022-12-18T03:47:14;-1.90;99.90
17565;DHT22;62994;52.126;5.596;2022-12-18T03:49:50;-1.90;99.90
17565;DHT22;62994;52.126;5.596;2022-12-18T03:52:23;-2.00;99.90
17565;DHT22;62994;52.126;5.596;2022-12-18T03:54:57;-2.10;99.90
17565;DHT22;62994;52.126;5.596;2022-12-18T03:57:27;-2.20;99.90
17565;DHT22;62994;52.126;5.596;2022-12-18T03:59:59;-2.20;99.90
17565;DHT22;62994;52.126;5.596;2022-12-18T04:02:28;-2.20;99.90
17565;DHT22;62994;52.126;5.596;2022-12-18T04:05:01;-2.20;99.90
17565;DHT22;62994;52.126;5.596;2022-12-18T04:07:33;-2.20;99.90
17565;DHT22;62994;52.126;5.596;2022-12-18T04:10:02;-2.20;99.90
17565;DHT22;62994;52.126;5.596;2022-12-18T04:12:30;-2.20;99.90
17565;DHT22;62994;52.126;5.596;2022-12-18T04:15:05;-2.30;99.90
17565;DHT22;62994;52.126;5.596;2022-12-18T04:17:32;-2.30;99.90
17565;DHT22;62994;52.126;5.596;2022-12-18T04:19:59;-2.40;99.90
17565;DHT22;62994;52.126;5.596;2022-12-18T04:22:26;-2.50;99.90
17565;DHT22;62994;52.126;5.596;2022-12-18T04:24:53;-2.50;99.90
17565;DHT22;62994;52.126;5.596;2022-12-18T04:27:20;-2.50;99.90
17565;DHT22;62994;52.126;5.596;2022-12-18T04:29:48;-2.60;99.90
17565;DHT22;62994;52.126;5.596;2022-12-18T04:32:17;-2.60;99.90
17565;DHT22;62994;52.126;5.596;2022-12-18T04:34:44;-2.60;99.90
17565;DHT22;62994;52.126;5.596;2022-12-18T04:37:11;-2.70;99.90
17565;DHT22;62994;52.126;5.596;2022-12-18T04:39:38;-2.70;99.90
17565;DHT22;62994;52.126;5.596;2022-12-18T04:42:07;-2.80;99.90
17565;DHT22;62994;52.126;5.596;2022-12-18T04:44:34;-2.80;99.90
17565;DHT22;62994;52.126;5.596;2022-12-18T04:47:01;-2.80;99.90
17565;DHT22;62994;52.126;5.596;2022-12-18T04:49:34;-2.80;99.90
17565;DHT22;62994;52.126;5.596;2022-12-18T04:52:02;-2.90;99.90
17565;DHT22;62994;52.126;5.596;2022-12-18T04:54:31;-2.90;99.90
17565;DHT22;62994;52.126;5.596;2022-12-18T04:57:03;-2.80;99.90
17565;DHT22;62994;52.126;5.596;2022-12-18T04:59:34;-2.80;99.90
17565;DHT22;62994;52.126;5.596;2022-12-18T05:02:01;-2.80;99.90
17565;DHT22;62994;52.126;5.596;2022-12-18T05:04:29;-2.80;99.90
17565;DHT22;62994;52.126;5.596;2022-12-18T05:07:01;-2.70;99.90
17565;DHT22;62994;52.126;5.596;2022-12-18T05:09:28;-2.70;99.90
17565;DHT22;62994;52.126;5.596;2022-12-18T05:11:55;-2.70;99.90
17565;DHT22;62994;52.126;5.596;2022-12-18T05:14:24;-2.70;99.90
17565;DHT22;62994;52.126;5.596;2022-12-18T05:16:51;-2.70;99.90
17565;DHT22;62994;52.126;5.596;2022-12-18T05:19:18;-2.70;99.90
17565;DHT22;62994;52.126;5.596;2022-12-18T05:21:45;-2.60;99.90
17565;DHT22;62994;52.126;5.596;2022-12-18T05:24:14;-2.60;99.90
17565;DHT22;62994;52.126;5.596;2022-12-18T05:26:41;-2.60;99.90
17565;DHT22;62994;52.126;5.596;2022-12-18T05:29:13;-2.60;99.90
17565;DHT22;62994;52.126;5.596;2022-12-18T05:31:41;-2.60;99.90
17565;DHT22;62994;52.126;5.596;2022-12-18T05:34:08;-2.60;99.90
17565;DHT22;62994;52.126;5.596;2022-12-18T05:36:35;-2.70;99.90
17565;DHT22;62994;52.126;5.596;2022-12-18T05:39:02;-2.70;99.90
17565;DHT22;62994;52.126;5.596;2022-12-18T05:41:31;-2.70;99.90
17565;DHT22;62994;52.126;5.596;2022-12-18T05:44:00;-2.80;99.90
17565;DHT22;62994;52.126;5.596;2022-12-18T05:46:28;-2.80;99.90
17565;DHT22;62994;52.126;5.596;2022-12-18T05:48:55;-2.90;99.90
17565;DHT22;62994;52.126;5.596;2022-12-18T05:51:25;-2.90;99.90
17565;DHT22;62994;52.126;5.596;2022-12-18T05:53:52;-3.00;99.90
17565;DHT22;62994;52.126;5.596;2022-12-18T05:56:21;-3.00;99.90
17565;DHT22;62994;52.126;5.596;2022-12-18T05:58:52;-3.00;99.90
17565;DHT22;62994;52.126;5.596;2022-12-18T06:01:21;-3.00;99.90
17565;DHT22;62994;52.126;5.596;2022-12-18T06:03:49;-3.00;99.90
17565;DHT22;62994;52.126;5.596;2022-12-18T06:06:17;-3.00;99.90
17565;DHT22;62994;52.126;5.596;2022-12-18T06:08:44;-3.00;99.90
17565;DHT22;62994;52.126;5.596;2022-12-18T06:11:12;-3.10;99.90
17565;DHT22;62994;52.126;5.596;2022-12-18T06:13:42;-3.00;99.90
17565;DHT22;62994;52.126;5.596;2022-12-18T06:16:11;-3.00;99.90
17565;DHT22;62994;52.126;5.596;2022-12-18T06:18:38;-3.00;99.90
17565;DHT22;62994;52.126;5.596;2022-12-18T06:21:05;-3.00;99.90
17565;DHT22;62994;52.126;5.596;2022-12-18T06:23:32;-2.90;99.90
17565;DHT22;62994;52.126;5.596;2022-12-18T06:26:03;-3.00;99.90
17565;DHT22;62994;52.126;5.596;2022-12-18T06:28:31;-3.00;99.90
17565;DHT22;62994;52.126;5.596;2022-12-18T06:30:58;-3.00;99.90
17565;DHT22;62994;52.126;5.596;2022-12-18T06:33:28;-3.20;99.90
17565;DHT22;62994;52.126;5.596;2022-12-18T06:36:00;-3.10;99.90
17565;DHT22;62994;52.126;5.596;2022-12-18T06:38:28;-3.10;99.90
17565;DHT22;62994;52.126;5.596;2022-12-18T06:40:55;-3.00;99.90
17565;DHT22;62994;52.126;5.596;2022-12-18T06:43:25;-3.00;99.90
17565;DHT22;62994;52.126;5.596;2022-12-18T06:45:58;-3.00;99.90
17565;DHT22;62994;52.126;5.596;2022-12-18T06:48:30;-3.00;99.90
17565;DHT22;62994;52.126;5.596;2022-12-18T06:50:57;-3.00;99.90
17565;DHT22;62994;52.126;5.596;2022-12-18T06:53:24;-3.00;99.90
17565;DHT22;62994;52.126;5.596;2022-12-18T06:55:52;-3.00;99.90
17565;DHT22;62994;52.126;5.596;2022-12-18T06:58:19;-3.00;99.90
17565;DHT22;62994;52.126;5.596;2022-12-18T07:00:47;-2.90;99.90
17565;DHT22;62994;52.126;5.596;2022-12-18T07:03:16;-2.90;99.90
17565;DHT22;62994;52.126;5.596;2022-12-18T07:05:44;-2.90;99.90
17565;DHT22;62994;52.126;5.596;2022-12-18T07:08:11;-2.90;99.90
17565;DHT22;62994;52.126;5.596;2022-12-18T07:10:41;-3.00;99.90
17565;DHT22;62994;52.126;5.596;2022-12-18T07:13:10;-3.00;99.90
17565;DHT22;62994;52.126;5.596;2022-12-18T07:15:38;-3.00;99.90
17565;DHT22;62994;52.126;5.596;2022-12-18T07:18:05;-3.00;99.90
17565;DHT22;62994;52.126;5.596;2022-12-18T07:20:32;-3.00;99.90
17565;DHT22;62994;52.126;5.596;2022-12-18T07:23:01;-3.10;99.90
17565;DHT22;62994;52.126;5.596;2022-12-18T07:25:28;-3.10;99.90
17565;DHT22;62994;52.126;5.596;2022-12-18T07:27:55;-3.10;99.90
17565;DHT22;62994;52.126;5.596;2022-12-18T07:30:22;-3.10;99.90
17565;DHT22;62994;52.126;5.596;2022-12-18T07:32:49;-3.10;99.90
17565;DHT22;62994;52.126;5.596;2022-12-18T07:35:17;-3.10;99.90
17565;DHT22;62994;52.126;5.596;2022-12-18T07:37:44;-3.10;99.90
17565;DHT22;62994;52.126;5.596;2022-12-18T07:40:13;-3.10;99.90
17565;DHT22;62994;52.126;5.596;2022-12-18T07:42:40;-3.10;99.90
17565;DHT22;62994;52.126;5.596;2022-12-18T07:45:08;-3.10;99.90
17565;DHT22;62994;52.126;5.596;2022-12-18T07:47:36;-3.10;99.90
17565;DHT22;62994;52.126;5.596;2022-12-18T07:50:04;-3.10;99.90
17565;DHT22;62994;52.126;5.596;2022-12-18T07:52:32;-3.10;99.90
17565;DHT22;62994;52.126;5.596;2022-12-18T07:54:59;-3.10;99.90
17565;DHT22;62994;52.126;5.596;2022-12-18T07:57:29;-3.10;99.90
17565;DHT22;62994;52.126;5.596;2022-12-18T08:00:07;-3.10;99.90
17565;DHT22;62994;52.126;5.596;2022-12-18T08:02:35;-3.00;99.90
17565;DHT22;62994;52.126;5.596;2022-12-18T08:05:06;-3.00;99.90
17565;DHT22;62994;52.126;5.596;2022-12-18T08:07:33;-3.00;99.90
17565;DHT22;62994;52.126;5.596;2022-12-18T08:10:01;-3.00;99.90
17565;DHT22;62994;52.126;5.596;2022-12-18T08:12:30;-3.00;99.90
17565;DHT22;62994;52.126;5.596;2022-12-18T08:14:57;-2.90;99.90
17565;DHT22;62994;52.126;5.596;2022-12-18T08:17:29;-2.90;99.90
17565;DHT22;62994;52.126;5.596;2022-12-18T08:19:56;-2.80;99.90
17565;DHT22;62994;52.126;5.596;2022-12-18T08:22:23;-2.80;99.90
17565;DHT22;62994;52.126;5.596;2022-12-18T08:24:50;-2.80;99.90
17565;DHT22;62994;52.126;5.596;2022-12-18T08:27:18;-2.70;99.90
17565;DHT22;62994;52.126;5.596;2022-12-18T08:29:46;-2.70;99.90
17565;DHT22;62994;52.126;5.596;2022-12-18T08:32:15;-2.60;99.90
17565;DHT22;62994;52.126;5.596;2022-12-18T08:34:45;-2.60;99.90
17565;DHT22;62994;52.126;5.596;2022-12-18T08:37:16;-2.50;99.90
17565;DHT22;62994;52.126;5.596;2022-12-18T08:39:48;-2.50;99.90
17565;DHT22;62994;52.126;5.596;2022-12-18T08:42:15;-2.50;99.90
17565;DHT22;62994;52.126;5.596;2022-12-18T08:45:01;-2.40;99.90
17565;DHT22;62994;52.126;5.596;2022-12-18T08:47:37;-2.30;99.90
17565;DHT22;62994;52.126;5.596;2022-12-18T08:50:07;-2.30;99.90
17565;DHT22;62994;52.126;5.596;2022-12-18T08:52:36;-2.30;99.90
17565;DHT22;62994;52.126;5.596;2022-12-18T08:55:04;-2.20;99.90
17565;DHT22;62994;52.126;5.596;2022-12-18T08:57:31;-2.20;99.90
17565;DHT22;62994;52.126;5.596;2022-12-18T08:59:59;-2.20;99.90
17565;DHT22;62994;52.126;5.596;2022-12-18T09:02:28;-2.10;99.90
17565;DHT22;62994;52.126;5.596;2022-12-18T09:04:55;-2.10;99.90
17565;DHT22;62994;52.126;5.596;2022-12-18T09:07:24;-2.00;99.90
17565;DHT22;62994;52.126;5.596;2022-12-18T09:09:51;-2.00;99.90
17565;DHT22;62994;52.126;5.596;2022-12-18T09:12:18;-1.90;99.90
17565;DHT22;62994;52.126;5.596;2022-12-18T09:14:45;-1.90;99.90
17565;DHT22;62994;52.126;5.596;2022-12-18T09:17:28;-1.80;99.90
17565;DHT22;62994;52.126;5.596;2022-12-18T09:19:54;-1.80;99.90
17565;DHT22;62994;52.126;5.596;2022-12-18T09:22:21;-1.80;99.90
17565;DHT22;62994;52.126;5.596;2022-12-18T09:24:49;-1.70;99.90
17565;DHT22;62994;52.126;5.596;2022-12-18T09:27:21;-1.70;99.90
17565;DHT22;62994;52.126;5.596;2022-12-18T09:29:48;-1.70;99.90
17565;DHT22;62994;52.126;5.596;2022-12-18T09:32:17;-1.60;99.90
17565;DHT22;62994;52.126;5.596;2022-12-18T09:34:45;-1.60;99.90
17565;DHT22;62994;52.126;5.596;2022-12-18T09:37:12;-1.60;99.90
17565;DHT22;62994;52.126;5.596;2022-12-18T09:39:44;-1.50;99.90
17565;DHT22;62994;52.126;5.596;2022-12-18T09:42:20;-1.50;99.90
17565;DHT22;62994;52.126;5.596;2022-12-18T09:44:50;-1.50;99.90
17565;DHT22;62994;52.126;5.596;2022-12-18T09:47:21;-1.50;99.90
17565;DHT22;62994;52.126;5.596;2022-12-18T09:49:52;-1.40;99.90
17565;DHT22;62994;52.126;5.596;2022-12-18T09:52:26;-1.40;99.90
17565;DHT22;62994;52.126;5.596;2022-12-18T09:55:00;-1.30;99.90
17565;DHT22;62994;52.126;5.596;2022-12-18T09:57:33;-1.20;99.90
17565;DHT22;62994;52.126;5.596;2022-12-18T10:00:15;-1.30;99.90
17565;DHT22;62994;52.126;5.596;2022-12-18T10:02:45;-1.20;99.90
17565;DHT22;62994;52.126;5.596;2022-12-18T10:05:27;-1.20;99.90
17565;DHT22;62994;52.126;5.596;2022-12-18T10:08:01;-1.10;99.90
17565;DHT22;62994;52.126;5.596;2022-12-18T10:10:36;-1.10;99.90
17565;DHT22;62994;52.126;5.596;2022-12-18T10:13:15;-1.10;99.90
17565;DHT22;62994;52.126;5.596;2022-12-18T10:15:52;-1.10;99.90
17565;DHT22;62994;52.126;5.596;2022-12-18T10:18:30;-1.00;99.90
17565;DHT22;62994;52.126;5.596;2022-12-18T10:21:05;-1.00;99.90
17565;DHT22;62994;52.126;5.596;2022-12-18T10:23:39;-1.00;99.90
17565;DHT22;62994;52.126;5.596;2022-12-18T10:26:14;-0.90;99.90
17565;DHT22;62994;52.126;5.596;2022-12-18T10:28:46;-0.90;99.90
17565;DHT22;62994;52.126;5.596;2022-12-18T10:31:16;-0.80;99.90
17565;DHT22;62994;52.126;5.596;2022-12-18T10:33:45;-0.70;99.90
17565;DHT22;62994;52.126;5.596;2022-12-18T10:36:15;-0.80;99.90
17565;DHT22;62994;52.126;5.596;2022-12-18T10:38:47;-0.70;99.90
17565;DHT22;62994;52.126;5.596;2022-12-18T10:41:26;-0.70;99.90
17565;DHT22;62994;52.126;5.596;2022-12-18T10:44:21;-0.60;99.90
17565;DHT22;62994;52.126;5.596;2022-12-18T10:47:06;-0.50;99.90
17565;DHT22;62994;52.126;5.596;2022-12-18T10:49:46;-0.50;99.90
17565;DHT22;62994;52.126;5.596;2022-12-18T10:52:18;-0.50;99.90
17565;DHT22;62994;52.126;5.596;2022-12-18T10:54:51;-0.50;99.90
17565;DHT22;62994;52.126;5.596;2022-12-18T10:57:34;-0.40;99.90
17565;DHT22;62994;52.126;5.596;2022-12-18T11:00:25;-0.40;99.90
17565;DHT22;62994;52.126;5.596;2022-12-18T11:02:56;-0.40;99.90
17565;DHT22;62994;52.126;5.596;2022-12-18T11:05:28;-0.30;99.90
17565;DHT22;62994;52.126;5.596;2022-12-18T11:07:56;-0.20;99.90
17565;DHT22;62994;52.126;5.596;2022-12-18T11:10:29;-0.10;99.90
17565;DHT22;62994;52.126;5.596;2022-12-18T11:13:19;-0.10;99.90
17565;DHT22;62994;52.126;5.596;2022-12-18T11:15:47;-0.10;99.90
17565;DHT22;62994;52.126;5.596;2022-12-18T11:18:20;-0.10;99.90
17565;DHT22;62994;52.126;5.596;2022-12-18T11:20:55;-0.10;99.90
17565;DHT22;62994;52.126;5.596;2022-12-18T11:23:23;-0.10;99.90
17565;DHT22;62994;52.126;5.596;2022-12-18T11:25:56;0.00;99.90
17565;DHT22;62994;52.126;5.596;2022-12-18T11:28:35;-0.10;99.90
17565;DHT22;62994;52.126;5.596;2022-12-18T11:31:29;0.00;99.90
17565;DHT22;62994;52.126;5.596;2022-12-18T11:34:02;0.00;99.90
17565;DHT22;62994;52.126;5.596;2022-12-18T11:36:36;0.00;99.90
17565;DHT22;62994;52.126;5.596;2022-12-18T11:39:15;0.10;99.90
17565;DHT22;62994;52.126;5.596;2022-12-18T11:41:50;0.10;99.90
17565;DHT22;62994;52.126;5.596;2022-12-18T11:44:43;0.10;99.90
17565;DHT22;62994;52.126;5.596;2022-12-18T11:47:21;0.20;99.90
17565;DHT22;62994;52.126;5.596;2022-12-18T11:49:55;0.20;99.90
17565;DHT22;62994;52.126;5.596;2022-12-18T11:52:43;0.20;99.90
17565;DHT22;62994;52.126;5.596;2022-12-18T11:55:24;0.30;99.90
17565;DHT22;62994;52.126;5.596;2022-12-18T11:58:02;0.30;99.90
17565;DHT22;62994;52.126;5.596;2022-12-18T12:00:41;0.40;99.90
17565;DHT22;62994;52.126;5.596;2022-12-18T12:03:29;0.40;99.90
17565;DHT22;62994;52.126;5.596;2022-12-18T12:06:11;0.40;99.90
17565;DHT22;62994;52.126;5.596;2022-12-18T12:08:54;0.40;99.90
17565;DHT22;62994;52.126;5.596;2022-12-18T12:11:28;0.40;99.90
17565;DHT22;62994;52.126;5.596;2022-12-18T12:14:08;0.50;99.90
17565;DHT22;62994;52.126;5.596;2022-12-18T12:16:48;0.50;99.90
17565;DHT22;62994;52.126;5.596;2022-12-18T12:19:30;0.50;99.90
17565;DHT22;62994;52.126;5.596;2022-12-18T12:22:05;0.60;99.90
17565;DHT22;62994;52.126;5.596;2022-12-18T12:24:46;0.60;99.90
17565;DHT22;62994;52.126;5.596;2022-12-18T12:27:27;0.60;99.90
17565;DHT22;62994;52.126;5.596;2022-12-18T12:30:03;0.70;99.90
17565;DHT22;62994;52.126;5.596;2022-12-18T12:32:45;0.70;99.90
17565;DHT22;62994;52.126;5.596;2022-12-18T12:35:26;0.90;99.90
17565;DHT22;62994;52.126;5.596;2022-12-18T12:38:06;0.90;99.90
17565;DHT22;62994;52.126;5.596;2022-12-18T12:40:42;0.90;99.90
17565;DHT22;62994;52.126;5.596;2022-12-18T12:43:24;0.90;99.90
17565;DHT22;62994;52.126;5.596;2022-12-18T12:45:56;0.90;99.90
17565;DHT22;62994;52.126;5.596;2022-12-18T12:48:42;0.90;99.90
17565;DHT22;62994;52.126;5.596;2022-12-18T12:51:15;0.90;99.90
17565;DHT22;62994;52.126;5.596;2022-12-18T12:53:47;0.90;99.90
17565;DHT22;62994;52.126;5.596;2022-12-18T12:56:18;0.90;99.90
17565;DHT22;62994;52.126;5.596;2022-12-18T12:59:04;0.90;99.90
17565;DHT22;62994;52.126;5.596;2022-12-18T13:01:40;0.90;99.90
17565;DHT22;62994;52.126;5.596;2022-12-18T13:04:17;0.90;99.90
17565;DHT22;62994;52.126;5.596;2022-12-18T13:06:53;0.90;99.90
17565;DHT22;62994;52.126;5.596;2022-12-18T13:09:33;0.90;99.90
17565;DHT22;62994;52.126;5.596;2022-12-18T13:15:12;1.00;99.90
17565;DHT22;62994;52.126;5.596;2022-12-18T13:17:45;1.00;99.90
17565;DHT22;62994;52.126;5.596;2022-12-18T13:20:17;1.00;99.90
17565;DHT22;62994;52.126;5.596;2022-12-18T13:22:46;1.00;99.90
17565;DHT22;62994;52.126;5.596;2022-12-18T13:25:38;1.00;99.90
17565;DHT22;62994;52.126;5.596;2022-12-18T13:28:14;1.00;99.90
17565;DHT22;62994;52.126;5.596;2022-12-18T13:30:46;1.00;99.90
17565;DHT22;62994;52.126;5.596;2022-12-18T13:33:42;1.10;99.90
17565;DHT22;62994;52.126;5.596;2022-12-18T13:36:16;1.10;99.90
17565;DHT22;62994;52.126;5.596;2022-12-18T13:45:42;1.10;99.90
17565;DHT22;62994;52.126;5.596;2022-12-18T13:48:22;1.10;99.90
17565;DHT22;62994;52.126;5.596;2022-12-18T13:50:57;1.10;99.90
17565;DHT22;62994;52.126;5.596;2022-12-18T13:53:35;1.10;99.90
17565;DHT22;62994;52.126;5.596;2022-12-18T13:56:03;1.10;99.90
17565;DHT22;62994;52.126;5.596;2022-12-18T13:58:31;1.10;99.90
17565;DHT22;62994;52.126;5.596;2022-12-18T14:01:00;1.10;99.90
17565;DHT22;62994;52.126;5.596;2022-12-18T14:03:35;1.10;99.90
17565;DHT22;62994;52.126;5.596;2022-12-18T14:06:06;1.20;99.90
17565;DHT22;62994;52.126;5.596;2022-12-18T14:08:39;1.20;99.90
17565;DHT22;62994;52.126;5.596;2022-12-18T14:11:19;1.20;99.90
17565;DHT22;62994;52.126;5.596;2022-12-18T14:13:49;1.20;99.90
17565;DHT22;62994;52.126;5.596;2022-12-18T14:16:27;1.20;99.90
17565;DHT22;62994;52.126;5.596;2022-12-18T14:18:56;1.20;99.90
17565;DHT22;62994;52.126;5.596;2022-12-18T14:21:26;1.20;99.90
17565;DHT22;62994;52.126;5.596;2022-12-18T14:24:13;1.20;99.90
17565;DHT22;62994;52.126;5.596;2022-12-18T14:26:41;1.20;99.90
17565;DHT22;62994;52.126;5.596;2022-12-18T14:29:23;1.20;99.90
17565;DHT22;62994;52.126;5.596;2022-12-18T14:32:10;1.20;99.90
17565;DHT22;62994;52.126;5.596;2022-12-18T14:34:39;1.20;99.90
17565;DHT22;62994;52.126;5.596;2022-12-18T14:37:10;1.20;99.90
17565;DHT22;62994;52.126;5.596;2022-12-18T14:39:38;1.20;99.90
17565;DHT22;62994;52.126;5.596;2022-12-18T14:42:14;1.20;99.90
17565;DHT22;62994;52.126;5.596;2022-12-18T14:44:41;1.20;99.90
17565;DHT22;62994;52.126;5.596;2022-12-18T14:47:16;1.30;99.90
17565;DHT22;62994;52.126;5.596;2022-12-18T14:49:44;1.30;99.90
17565;DHT22;62994;52.126;5.596;2022-12-18T14:52:31;1.20;99.90
17565;DHT22;62994;52.126;5.596;2022-12-18T14:54:58;1.30;99.90
17565;DHT22;62994;52.126;5.596;2022-12-18T14:57:30;1.30;99.90
17565;DHT22;62994;52.126;5.596;2022-12-18T15:00:04;1.30;99.90
17565;DHT22;62994;52.126;5.596;2022-12-18T15:02:35;1.30;99.90
17565;DHT22;62994;52.126;5.596;2022-12-18T15:05:05;1.30;99.90
17565;DHT22;62994;52.126;5.596;2022-12-18T15:07:41;1.30;99.90
17565;DHT22;62994;52.126;5.596;2022-12-18T15:10:14;1.30;99.90
17565;DHT22;62994;52.126;5.596;2022-12-18T15:12:47;1.30;99.90
17565;DHT22;62994;52.126;5.596;2022-12-18T15:15:45;1.30;99.90
17565;DHT22;62994;52.126;5.596;2022-12-18T15:18:22;1.30;99.90
17565;DHT22;62994;52.126;5.596;2022-12-18T15:20:56;1.30;99.90
17565;DHT22;62994;52.126;5.596;2022-12-18T15:23:29;1.30;99.90
17565;DHT22;62994;52.126;5.596;2022-12-18T15:26:00;1.30;99.90
17565;DHT22;62994;52.126;5.596;2022-12-18T15:28:35;1.30;99.90
17565;DHT22;62994;52.126;5.596;2022-12-18T15:31:22;1.30;99.90
17565;DHT22;62994;52.126;5.596;2022-12-18T15:34:11;1.30;99.90
17565;DHT22;62994;52.126;5.596;2022-12-18T15:36:40;1.30;99.90
17565;DHT22;62994;52.126;5.596;2022-12-18T15:39:11;1.30;99.90
17565;DHT22;62994;52.126;5.596;2022-12-18T15:41:39;1.30;99.90
17565;DHT22;62994;52.126;5.596;2022-12-18T15:44:22;1.30;99.90
17565;DHT22;62994;52.126;5.596;2022-12-18T15:46:51;1.30;99.90
17565;DHT22;62994;52.126;5.596;2022-12-18T15:49:20;1.30;99.90
17565;DHT22;62994;52.126;5.596;2022-12-18T15:51:50;1.30;99.90
17565;DHT22;62994;52.126;5.596;2022-12-18T15:54:18;1.40;99.90
17565;DHT22;62994;52.126;5.596;2022-12-18T15:57:10;1.30;99.90
17565;DHT22;62994;52.126;5.596;2022-12-18T16:00:04;1.30;99.90
17565;DHT22;62994;52.126;5.596;2022-12-18T16:02:35;1.30;99.90
17565;DHT22;62994;52.126;5.596;2022-12-18T16:05:10;1.30;99.90
17565;DHT22;62994;52.126;5.596;2022-12-18T16:07:40;1.30;99.90
17565;DHT22;62994;52.126;5.596;2022-12-18T16:10:08;1.30;99.90
17565;DHT22;62994;52.126;5.596;2022-12-18T16:12:36;1.30;99.90
17565;DHT22;62994;52.126;5.596;2022-12-18T16:15:05;1.30;99.90
17565;DHT22;62994;52.126;5.596;2022-12-18T16:17:32;1.30;99.90